Meteopurmerend
purmerend
Purmerend - Baaienwijk



My webcam  My webcam


Onweer radar Meer informatie blitzortung!


Regen radar Meer informatie rain snow radar


Bezoek onze andere website:

CandyAppleRed WebdesignWebdesign Purmerend Candy Apple Red

MeteopurmerendBlog

Template documentation
and downloads



We konden geen weer-waarchuwingen ophalen. Ga rechtstreeks naar de Meteoalarm site : www.meteoalarm.eu en controleer daar .

Aardbevingen in de afgelopen 7 dagen

Aardbevingen in de laatste 7 dagen met een kracht van 2.0 of groter op 15000 km
Laatste wijziging = 02-03-2024 11:03

Epicenter in de buurt van Magnitude Afstand tot epicenter Lokale tijd Link
72 km SE of Old Harbor, Alaska 3.8 0076937693 km 170937205502-03-2024 09:34 kaart
8 km NW of Prague, Oklahoma 2.1 0076577657 km 170937155902-03-2024 09:25 kaart
97 km NNE of Cruz Bay, U.S. Virgin Islands 4.1 0069436943 km 170937000602-03-2024 09:00 kaart
66 km ENE of Ensenada, B.C., MX 2.6 0090099009 km 170936985302-03-2024 08:57 kaart
9 km NNW of Susitna, Alaska 2.0 0071427142 km 170936774702-03-2024 08:22 kaart
94 km SSE of King Cove, Alaska 4.4 0080698069 km 170936654802-03-2024 08:02 kaart
Rat Islands, Aleutian Islands, Alaska 4.9 0084408440 km 170936584802-03-2024 07:50 kaart
3 km SW of La Parguera, Puerto Rico 2.6 0072227222 km 170936429202-03-2024 07:24 kaart
8 km SE of Sparks, Oklahoma 2.1 0076547654 km 170936364202-03-2024 07:14 kaart
7 km SSE of Manchester, Oklahoma 2.0 0076097609 km 170936326002-03-2024 07:07 kaart
50 km SSE of Denali National Park, Alaska 2.0 0069996999 km 170936284502-03-2024 07:00 kaart
24 km S of Susitna, Alaska 2.0 0071757175 km 170936181302-03-2024 06:43 kaart
45 km E of Fort Bidwell, California 2.7 0082448244 km 170935925102-03-2024 06:00 kaart
66 km E of Aras-asan, Philippines 4.6 01126711267 km 170935618802-03-2024 05:09 kaart
7 km SW of Volcano, Hawaii 2.1 01179611796 km 170935509402-03-2024 04:51 kaart
3 km SW of Pāhala, Hawaii 2.2 01182411824 km 170935492702-03-2024 04:48 kaart
47 km ENE of Fort Bidwell, California 2.6 0082428242 km 170935390102-03-2024 04:31 kaart
107 km SSE of San Agustín de Valle Fértil, Argentina 4.2 01162711627 km 170935373302-03-2024 04:28 kaart
6 km S of Manchester, Oklahoma 2.2 0076107610 km 170935183102-03-2024 03:57 kaart
79 km ENE of Port Alsworth, Alaska 2.6 0073087308 km 170935077502-03-2024 03:39 kaart
7 km SSE of Maria Antonia, Puerto Rico 2.6 0072107210 km 170934880002-03-2024 03:06 kaart
1 km NNE of Indios, Puerto Rico 2.8 0072007200 km 170934672502-03-2024 02:32 kaart
3 km S of Pāhala, Hawaii 2.2 01182411824 km 170934235302-03-2024 01:19 kaart
Kepulauan Babar, Indonesia 4.5 01290812908 km 170934056202-03-2024 00:49 kaart
16 km E of Ferry, Alaska 2.1 0068616861 km 170933942402-03-2024 00:30 kaart
2 km S of Guánica, Puerto Rico 2.2 0072107210 km 170933915302-03-2024 00:25 kaart
20 km NNE of Pāhala, Hawaii 2.0 01180011800 km 170933769602-03-2024 00:01 kaart
31 km ESE of Pedro Bay, Alaska 2.0 0073947394 km 170933548601-03-2024 23:24 kaart
14 km NE of Milford, Utah 2.3 0082578257 km 170933418801-03-2024 23:03 kaart
9 km NNE of Houston, Alaska 2.1 0071217121 km 170933271901-03-2024 22:38 kaart
58 km ESE of Whittier, Alaska 2.0 0072037203 km 170933014801-03-2024 21:55 kaart
14 km N of Meadow Lakes, Alaska 2.6 0071147114 km 170932469501-03-2024 20:24 kaart
3 km SE of Indios, Puerto Rico 2.2 0072017201 km 170932452801-03-2024 20:22 kaart
11 km WNW of Burney, CA 2.4 0084368436 km 170932277501-03-2024 19:52 kaart
1 km NNW of Pāhala, Hawaii 2.1 01181911819 km 170932225201-03-2024 19:44 kaart
Rat Islands, Aleutian Islands, Alaska 4.2 0083958395 km 170932218301-03-2024 19:43 kaart
20 km SSW of Anchor Point, Alaska 2.2 0073797379 km 170932197501-03-2024 19:39 kaart
3 km SSE of Ōhara, Japan 4.6 0093519351 km 170931842701-03-2024 18:40 kaart
74 km E of Teluk Dalam, Indonesia 4.9 01020410204 km 170931836601-03-2024 18:39 kaart
6 km NW of Shinmachi, Japan 4.5 0093469346 km 170931832701-03-2024 18:38 kaart
5 km WSW of Colonia Dora, Argentina 4.4 01115511155 km 170931637201-03-2024 18:06 kaart
2 km WSW of Pāhala, Hawaii 2.4 01182211822 km 170931610701-03-2024 18:01 kaart
Owen Fracture Zone region 5.9 0065246524 km 170931418501-03-2024 17:29 kaart
61 km SSE of Kokhanok, Alaska 2.1 0074897489 km 170931401001-03-2024 17:26 kaart
33 km W of Bandar Abbas, Iran 4.6 0050435043 km 170931393801-03-2024 17:25 kaart
56 km S of Whites City, New Mexico 2.0 0084308430 km 170931278201-03-2024 17:06 kaart
2 km NNW of Ōhara, Japan 5.1 0093459345 km 170931174301-03-2024 16:49 kaart
15 km WNW of Willow, Alaska 2.1 0071197119 km 170931155701-03-2024 16:45 kaart
44 km NW of Toyah, Texas 2.0 0084208420 km 170931151701-03-2024 16:45 kaart
3 km WSW of La Parguera, Puerto Rico 2.4 0072217221 km 170931067801-03-2024 16:31 kaart
69 km ESE of Pope-Vannoy Landing, Alaska 2.2 0074427442 km 170930977401-03-2024 16:16 kaart
6 km SSW of Westbrook, Texas 2.5 0081848184 km 170930927201-03-2024 16:07 kaart
11 km S of Atoka, New Mexico 2.7 0083418341 km 170930647401-03-2024 15:21 kaart
43 km NW of Toyah, Texas 2.2 0084198419 km 170930358201-03-2024 14:33 kaart
2 km WNW of Fuig, Puerto Rico 3.3 0072087208 km 170930211401-03-2024 14:08 kaart
6 km NNW of Smiths Ferry, Idaho 2.5 0078647864 km 170930110901-03-2024 13:51 kaart
34 km N of Petersville, Alaska 2.5 0070197019 km 170930105701-03-2024 13:50 kaart
6 km NNW of Smiths Ferry, Idaho 2.1 0078647864 km 170930045701-03-2024 13:40 kaart
1 km ESE of Pinnacles, CA 2.4 0088288828 km 170929994001-03-2024 13:32 kaart
7 km N of Smiths Ferry, Idaho 2.4 0078637863 km 170929927001-03-2024 13:21 kaart
7 km N of Smiths Ferry, Idaho 3.5 0078637863 km 170929915501-03-2024 13:19 kaart
4 km WSW of Fuig, Puerto Rico 3.2 0072117211 km 170929824201-03-2024 13:04 kaart
56 km S of Whites City, New Mexico 2.1 0084328432 km 170929811101-03-2024 13:01 kaart
8 km NNW of Smiths Ferry, Idaho 2.3 0078637863 km 170929696601-03-2024 12:42 kaart
4 km W of Pāhala, Hawaii 2.2 01182211822 km 170929678601-03-2024 12:39 kaart
8 km NW of Prague, Oklahoma 2.8 0076557655 km 170929464001-03-2024 12:04 kaart
5 km NW of Mayagüez, Puerto Rico 2.5 0072047204 km 170929447801-03-2024 12:01 kaart
117 km NNE of Finschhafen, Papua New Guinea 4.8 01382313823 km 170929307701-03-2024 11:37 kaart
76 km E of Christiansted, U.S. Virgin Islands 3.3 0070337033 km 170928825501-03-2024 10:17 kaart
65 km SE of Pedro Bay, Alaska 2.2 0074167416 km 170928786801-03-2024 10:11 kaart
39 km NE of Paxson, Alaska 2.0 0068736873 km 170928663901-03-2024 09:50 kaart
43 km E of Aras-asan, Philippines 5.3 01125811258 km 170928534201-03-2024 09:29 kaart
12 km ESE of Pāhala, Hawaii 2.2 01182411824 km 170928110001-03-2024 08:18 kaart
185 km NNW of Las Khorey, Somalia 4.8 0058125812 km 170928058601-03-2024 08:09 kaart
17 km SE of La Capilla, Peru 4.5 01057710577 km 170927714701-03-2024 07:12 kaart
178 km ENE of Agats, Indonesia 5.3 01328613286 km 170927679901-03-2024 07:06 kaart
9 km ENE of Pāhala, Hawaii 2.1 01181411814 km 170927670201-03-2024 07:05 kaart
158 km NNW of Gorontalo, Indonesia 4.8 01165411654 km 170927657201-03-2024 07:02 kaart
19 km N of Snyder, Texas 2.6 0081258125 km 170927561801-03-2024 06:46 kaart
18 km N of Snyder, Texas 2.1 0081258125 km 170927436601-03-2024 06:26 kaart
3 km SW of Pāhala, Hawaii 2.1 01182411824 km 170927331801-03-2024 06:08 kaart
31 km WSW of Holy Cross, Alaska 2.9 0072107210 km 170927271301-03-2024 05:58 kaart
3 km SW of Discovery Bay, CA 2.9 0087188718 km 170927269801-03-2024 05:58 kaart
22 km W of San Nicola Arcella, Italy 4.2 0016241624 km 170927235801-03-2024 05:52 kaart
52 km WNW of Ovalle, Chile 4.2 01181411814 km 170927145601-03-2024 05:37 kaart
54 km NW of Toyah, Texas 3.3 0084198419 km 170927012201-03-2024 05:15 kaart
8 km NNW of Smiths Ferry, Idaho 2.3 0078637863 km 170926644501-03-2024 04:14 kaart
6 km SSE of Salinas, Puerto Rico 2.4 0071717171 km 170926588201-03-2024 04:04 kaart
19 km WSW of Barview, Oregon 2.1 0083178317 km 170926586601-03-2024 04:04 kaart
35 km WNW of Ollagüe, Chile 4.2 01079410794 km 170926348201-03-2024 03:24 kaart
41 km ENE of Samaná, Dominican Republic 4.0 0072307230 km 170926078401-03-2024 02:39 kaart
8 km SSW of Boonville, CA 2.3 0086938693 km 170926059301-03-2024 02:36 kaart
20 km NNE of Black Rock City, Nevada 2.3 0083178317 km 170926044901-03-2024 02:34 kaart
25 km W of Padangsidempuan, Indonesia 4.4 01016210162 km 170925845901-03-2024 02:00 kaart
7 km NW of The Geysers, CA 2.5 0086798679 km 170925566901-03-2024 01:14 kaart
5 km S of Salinas, Puerto Rico 2.3 0071717171 km 170925516901-03-2024 01:06 kaart
51 km WNW of Skwentna, Alaska 3.3 0071117111 km 170925501501-03-2024 01:03 kaart
88 km S of Nikolski, Alaska 2.6 0083648364 km 170925272001-03-2024 00:25 kaart
4 km W of Lebec, CA 2.5 0088878887 km 170925190701-03-2024 00:11 kaart
243 km S of Pasni, Pakistan 4.1 0058935893 km 170925025729-02-2024 23:44 kaart
106 km E of Cordova, Alaska 2.4 0071497149 km 170924707229-02-2024 22:51 kaart
59 km NNW of Petersville, Alaska 2.1 0070097009 km 170924614629-02-2024 22:35 kaart
8 km SSW of Gabbs, Nevada 2.1 0084688468 km 170924542129-02-2024 22:23 kaart
5 km S of Salinas, Puerto Rico 2.5 0071717171 km 170924539129-02-2024 22:23 kaart
15 km NE of Cantwell, Alaska 3.0 0069186918 km 170924512129-02-2024 22:18 kaart
61 km WSW of Denali National Park, Alaska 2.1 0070007000 km 170924467929-02-2024 22:11 kaart
29 km NE of Akutan, Alaska 2.2 0081038103 km 170924458829-02-2024 22:09 kaart
17 km N of Truckee, CA 2.4 0085038503 km 170924062529-02-2024 21:03 kaart
2 km WSW of Pāhala, Hawaii 2.6 01182211822 km 170924057529-02-2024 21:02 kaart
23 km WNW of Cantwell, Alaska 2.0 0069336933 km 170923944529-02-2024 20:44 kaart
35 km E of Ichinomiya, Japan 5.2 0093509350 km 170923939529-02-2024 20:43 kaart
154 km WSW of Adak, Alaska 2.3 0084478447 km 170923895529-02-2024 20:35 kaart
13 km SSW of Gateway, Alaska 2.0 0071417141 km 170923816329-02-2024 20:22 kaart
238 km SSW of Gambiran Satu, Indonesia 5.0 01218912189 km 170923798329-02-2024 20:19 kaart
62 km N of Chickaloon, Alaska 2.7 0070377037 km 170923773129-02-2024 20:15 kaart
Sea of Okhotsk 4.1 0080438043 km 170923544429-02-2024 19:37 kaart
23 km SSW of Westbrook, Texas 2.5 0082018201 km 170923425429-02-2024 19:17 kaart
22 km NNE of Chickaloon, Alaska 2.6 0070707070 km 170922772829-02-2024 17:28 kaart
57 km E of Aras-asan, Philippines 4.8 01126611266 km 170922750229-02-2024 17:25 kaart
10 km ENE of Pāhala, Hawaii 2.2 01181411814 km 170922716429-02-2024 17:19 kaart
67 km E of Aras-asan, Philippines 4.6 01127511275 km 170922713029-02-2024 17:18 kaart
3 km E of Mitsukaidō, Japan 4.5 0092569256 km 170922251529-02-2024 16:01 kaart
3 km WSW of Pāhala, Hawaii 2.1 01182311823 km 170922208529-02-2024 15:54 kaart
127 km S of Tual, Indonesia 4.6 01307713077 km 170921801429-02-2024 14:46 kaart
24 km NW of Stanley, Idaho 2.5 0078247824 km 170921647829-02-2024 14:21 kaart
53 km WNW of Clam Gulch, Alaska 2.7 0072967296 km 170921257529-02-2024 13:16 kaart
12 km NW of Pinnacles, CA 2.5 0088268826 km 170921194629-02-2024 13:05 kaart
36 km SSW of Trapper Creek, Alaska 2.2 0071007100 km 170921073329-02-2024 12:45 kaart
7 km S of Salinas, Puerto Rico 2.0 0071727172 km 170921061729-02-2024 12:43 kaart
107 km WNW of Malango, Solomon Islands 5.0 01466414664 km 170920896729-02-2024 12:16 kaart
47 km NW of Ovalle, Chile 4.1 01180211802 km 170920629729-02-2024 11:31 kaart
6 km NW of Delta, B.C., MX 2.0 0089418941 km 170920566929-02-2024 11:21 kaart
272 km W of Indianola, California 4.5 0086448644 km 170920375929-02-2024 10:49 kaart
252 km W of Crescent City, California 4.9 0086088608 km 170920253529-02-2024 10:28 kaart
268 km WSW of Crescent City, California 3.5 0086278627 km 170920235929-02-2024 10:25 kaart
149 km WSW of Nikolski, Alaska 2.8 0083298329 km 170920049529-02-2024 09:54 kaart
10 km NE of Pāhala, Hawaii 2.7 01181311813 km 170920037229-02-2024 09:52 kaart
5 km E of Taylorville, Illinois 2.0 0068846884 km 170919994729-02-2024 09:45 kaart
9 km NNW of Graysville, Tennessee 2.6 0069606960 km 170919991629-02-2024 09:45 kaart
5 km NE of Ichinomiya, Japan 5.1 0093339333 km 170919934029-02-2024 09:35 kaart
103 km SSW of Adak, Alaska 5.0 0085008500 km 170919854029-02-2024 09:22 kaart
266 km W of Crescent City, California 3.4 0086188618 km 170919805329-02-2024 09:14 kaart
12 km NNE of Ocotillo Wells, CA 2.0 0089038903 km 170919739629-02-2024 09:03 kaart
46 km ENE of Calama, Chile 4.4 01090510905 km 170919531029-02-2024 08:28 kaart
10 km NE of Round Valley, CA 2.3 0086198619 km 170919496929-02-2024 08:22 kaart
9 km NE of Round Valley, CA 2.3 0086198619 km 170919495329-02-2024 08:22 kaart
47 km NNW of Ende, Indonesia 4.4 01253312533 km 170919410029-02-2024 08:08 kaart
265 km WSW of Pistol River, Oregon 4.1 0086168616 km 170919256529-02-2024 07:42 kaart
280 km WSW of Crescent City, California 4.3 0086308630 km 170919191429-02-2024 07:31 kaart
7 km NNW of Smiths Ferry, Idaho 2.3 0078657865 km 170919168929-02-2024 07:28 kaart
5 km NE of Ōhara, Japan 4.4 0093469346 km 170919164129-02-2024 07:27 kaart
23 km SE of Coahoma, Texas 2.3 0082028202 km 170919161129-02-2024 07:26 kaart
285 km WSW of Pistol River, Oregon 3.3 0086308630 km 170919143629-02-2024 07:23 kaart
255 km WSW of Crescent City, California 3.6 0086188618 km 170919051629-02-2024 07:08 kaart
north of Severnaya Zemlya 5.1 0041664166 km 170918787129-02-2024 06:24 kaart
36 km NNW of Toyah, Texas 2.3 0084138413 km 170918734329-02-2024 06:15 kaart
9 km N of Smiths Ferry, Idaho 2.2 0078627862 km 170918693829-02-2024 06:08 kaart
2 km N of Fuig, Puerto Rico 2.0 0072067206 km 170918634829-02-2024 05:59 kaart
16 km NE of Hermleigh, Texas 2.7 0081238123 km 170918602029-02-2024 05:53 kaart
25 km W of Pizitou, Taiwan 4.4 0095099509 km 170918438629-02-2024 05:26 kaart
2 km W of Yauco, Puerto Rico 2.2 0072017201 km 170918343129-02-2024 05:10 kaart
78 km WNW of Mpulungu, Zambia 4.8 0072097209 km 170918308329-02-2024 05:04 kaart
7 km NNW of Puerto Real, Puerto Rico 2.2 0072167216 km 170918291329-02-2024 05:01 kaart
3 km SW of Pāhala, Hawaii 2.2 01182411824 km 170918042929-02-2024 04:20 kaart
3 km NNE of Byron, CA 2.3 0087188718 km 170917993529-02-2024 04:12 kaart
Reykjanes Ridge 4.7 0025692569 km 170917943929-02-2024 04:03 kaart
290 km WSW of Crescent City, California 3.2 0086368636 km 170917942129-02-2024 04:03 kaart
11 km ENE of Pāhala, Hawaii 2.1 01181511815 km 170917784229-02-2024 03:37 kaart
12 km E of Ichinomiya, Japan 4.3 0093419341 km 170917744129-02-2024 03:30 kaart
33 km N of Skwentna, Alaska 2.3 0070837083 km 170917659529-02-2024 03:16 kaart
17 km NE of Hermleigh, Texas 2.9 0081228122 km 170917646529-02-2024 03:14 kaart
2 km NNE of Byron, CA 3.5 0087198719 km 170917330529-02-2024 02:21 kaart
16 km NE of Hermleigh, Texas 2.5 0081238123 km 170917303129-02-2024 02:17 kaart
15 km E of Ōhara, Japan 4.4 0093519351 km 170917278829-02-2024 02:13 kaart
24 km N of Skwentna, Alaska 2.4 0070937093 km 170917209029-02-2024 02:01 kaart
8 km NNW of Smiths Ferry, Idaho 2.6 0078657865 km 170917184929-02-2024 01:57 kaart
7 km NW of Smiths Ferry, Idaho 2.5 0078677867 km 170917179629-02-2024 01:56 kaart
77 km E of Aras-asan, Philippines 4.9 01127411274 km 170917083729-02-2024 01:40 kaart
67 km E of Denali Park, Alaska 2.1 0068766876 km 170917065829-02-2024 01:37 kaart
Prince Edward Islands region 4.9 01103811038 km 170916911729-02-2024 01:11 kaart
1 km SSW of Yauco, Puerto Rico 2.1 0072017201 km 170916904929-02-2024 01:10 kaart
14 km S of Honoka‘a, Hawaii 2.2 01174011740 km 170916899029-02-2024 01:09 kaart
8 km NNW of Smiths Ferry, Idaho 2.4 0078657865 km 170916882629-02-2024 01:07 kaart
11 km E of Pāhala, Hawaii 2.2 01182011820 km 170916881229-02-2024 01:06 kaart
9 km ESE of Aras-asan, Philippines 4.8 01123811238 km 170916873729-02-2024 01:05 kaart
6 km NNW of Smiths Ferry, Idaho 3.0 0078657865 km 170916802329-02-2024 00:53 kaart
0 km S of Coto Laurel, Puerto Rico 2.6 0071797179 km 170916768329-02-2024 00:48 kaart
2 km NW of Shasta Lake, CA 2.9 0084818481 km 170916748929-02-2024 00:44 kaart
20 km NNE of Valdez, Alaska 2.0 0071077107 km 170916639729-02-2024 00:26 kaart
51 km E of Aras-asan, Philippines 5.4 01126011260 km 170916623729-02-2024 00:23 kaart
3 km SSW of Pāhala, Hawaii 2.2 01182411824 km 170916543429-02-2024 00:10 kaart
51 km ESE of Aras-asan, Philippines 5.3 01126511265 km 170916541729-02-2024 00:10 kaart
237 km SE of Chiniak, Alaska 3.5 0077237723 km 170916522429-02-2024 00:07 kaart
56 km S of Whites City, New Mexico 2.4 0084308430 km 170916146628-02-2024 23:04 kaart
12 km E of Julian, CA 2.4 0089398939 km 170916102528-02-2024 22:57 kaart
45 km WNW of Clam Gulch, Alaska 2.9 0072967296 km 170915883628-02-2024 22:20 kaart
7 km E of Willits, CA 2.3 0086428642 km 170915845828-02-2024 22:14 kaart
4 km SSE of Canyondam, CA 2.2 0084788478 km 170915358428-02-2024 20:53 kaart
52 km ENE of Susitna North, Alaska 2.0 0070437043 km 170915165328-02-2024 20:20 kaart
50 km SE of Londres, Argentina 4.7 01131911319 km 170914984328-02-2024 19:50 kaart
3 km E of Hope, Alaska 2.6 0072037203 km 170914837528-02-2024 19:26 kaart
47 km SSE of Plush, Oregon 2.6 0082358235 km 170914528728-02-2024 18:34 kaart
15 km W of Hope, Alaska 2.1 0072107210 km 170914512428-02-2024 18:32 kaart
107 km SE of Estacion Coahuila, B.C., MX 3.5 0089878987 km 170914409328-02-2024 18:14 kaart
50 km W of Mentone, Texas 2.2 0084098409 km 170914356228-02-2024 18:06 kaart
4 km SSE of Canyondam, CA 2.2 0084788478 km 170914336928-02-2024 18:02 kaart
12 km WSW of Susitna, Alaska 2.0 0071597159 km 170914250028-02-2024 17:48 kaart
68 km WSW of Banda Aceh, Indonesia 4.6 0095379537 km 170914228028-02-2024 17:44 kaart
34 km SSE of Golfo de Santa Clara, Mexico 3.7 0089858985 km 170914190328-02-2024 17:38 kaart
54 km S of Whites City, New Mexico 2.3 0084318431 km 170914123828-02-2024 17:27 kaart
107 km SE of Estacion Coahuila, B.C., MX 3.0 0089888988 km 170914112628-02-2024 17:25 kaart
163 km WSW of Adak, Alaska 2.3 0084518451 km 170914001928-02-2024 17:06 kaart
23 km NE of Pedro Bay, Alaska 2.2 0073687368 km 170913953628-02-2024 16:58 kaart
83 km SE of King Cove, Alaska 2.1 0080598059 km 170913815728-02-2024 16:35 kaart
259 km W of Adak, Alaska 5.5 0083918391 km 170913542128-02-2024 15:50 kaart
44 km WSW of Denali Park, Alaska 2.2 0069206920 km 170913297628-02-2024 15:09 kaart
39 km SSW of Qualeys Camp, NV 2.1 0085788578 km 170913090528-02-2024 14:35 kaart
9 km SE of Salcha, Alaska 2.3 0067836783 km 170912879628-02-2024 13:59 kaart
35 km WNW of Central, Alaska 2.3 0066316631 km 170912876128-02-2024 13:59 kaart
29 km SW of Urakawa, Japan 4.8 0087478747 km 170912781428-02-2024 13:43 kaart
35 km E of Cantwell, Alaska 2.0 0069166916 km 170912725028-02-2024 13:34 kaart
48 km ESE of Port Alsworth, Alaska 2.0 0073507350 km 170912264228-02-2024 12:17 kaart
7 km WSW of Laupāhoehoe, Hawaii 2.0 01173511735 km 170912194028-02-2024 12:05 kaart
36 km NNW of Toyah, Texas 2.0 0084138413 km 170912120828-02-2024 11:53 kaart
71 km WNW of Uken, Japan 4.6 0094719471 km 170912076428-02-2024 11:46 kaart
21 km NNE of Willow, Alaska 2.5 0071007100 km 170911953428-02-2024 11:25 kaart
49 km W of Mentone, Texas 3.1 0084098409 km 170911932828-02-2024 11:22 kaart
16 km SSE of Stanley, Idaho 2.1 0078347834 km 170911581328-02-2024 10:23 kaart
39 km S of Nanwalek, Alaska 2.5 0074457445 km 170911525728-02-2024 10:14 kaart
Carlsberg Ridge 4.6 0072057205 km 170911445428-02-2024 10:00 kaart
77 km WNW of Ninilchik, Alaska 2.9 0073057305 km 170911407128-02-2024 09:54 kaart
19 km S of Susitna North, Alaska 2.1 0070937093 km 170911391428-02-2024 09:51 kaart
2 km WSW of Pāhala, Hawaii 3.1 01182211822 km 170911277928-02-2024 09:32 kaart
69 km ESE of Denali National Park, Alaska 2.0 0069636963 km 170911269228-02-2024 09:31 kaart
7 km SSE of Salinas, Puerto Rico 2.2 0071727172 km 170911204928-02-2024 09:20 kaart
48 km ENE of Fort Bidwell, California 3.0 0082408240 km 170911043428-02-2024 08:53 kaart
1 km WSW of Big Lake, Alaska 2.1 0071467146 km 170910939828-02-2024 08:36 kaart
Mariana Islands region 4.5 01083210832 km 170910628928-02-2024 07:44 kaart
28 km SSE of Funny River, Alaska 2.1 0072917291 km 170910490028-02-2024 07:21 kaart
41 km SSW of Suai, Timor Leste 4.7 01287312873 km 170910447928-02-2024 07:14 kaart
8 km WNW of Bello, Colombia 4.6 0088088808 km 170910391528-02-2024 07:05 kaart
16 km W of Happy Valley, Alaska 2.7 0073437343 km 170910294028-02-2024 06:49 kaart
8 km NNW of Smiths Ferry, Idaho 2.1 0078637863 km 170910283128-02-2024 06:47 kaart
10 km SW of Cascade, Idaho 2.3 0078577857 km 170910089128-02-2024 06:14 kaart
10 km NE of Pāhala, Hawaii 2.2 01181211812 km 170909999428-02-2024 05:59 kaart
13 km NW of Point Possession, Alaska 2.3 0072157215 km 170909953628-02-2024 05:52 kaart
55 km W of Tyonek, Alaska 2.3 0072187218 km 170909910428-02-2024 05:45 kaart
27 km NW of Cooper Landing, Alaska 2.1 0072377237 km 170909900828-02-2024 05:43 kaart
0 km NW of Kailua-Kona, Hawaii 2.2 01178411784 km 170909801628-02-2024 05:26 kaart
0 km ENE of Palomas, Puerto Rico 2.1 0072037203 km 170909596228-02-2024 04:52 kaart
59 km NE of María Elena, Chile 4.5 01092110921 km 170909560128-02-2024 04:46 kaart
5 km SE of Canyondam, CA 2.1 0084788478 km 170909188728-02-2024 03:44 kaart
34 km WNW of Petersville, Alaska 2.0 0070457045 km 170909119428-02-2024 03:33 kaart
65 km N of Lake Minchumina, Alaska 2.0 0068656865 km 170909066628-02-2024 03:24 kaart
27 km SW of Garden City, Texas 2.8 0082748274 km 170908850628-02-2024 02:48 kaart
27 km SW of Garden City, Texas 2.1 0082758275 km 170908846228-02-2024 02:47 kaart
69 km WSW of Padangsidempuan, Indonesia 4.7 01016910169 km 170908729128-02-2024 02:28 kaart
28 km SW of Garden City, Texas 2.0 0082758275 km 170908700928-02-2024 02:23 kaart
36 km SSE of Funny River, Alaska 2.2 0072967296 km 170908674028-02-2024 02:19 kaart
12 km W of Petrolia, CA 2.2 0086018601 km 170908314728-02-2024 01:19 kaart
99 km W of Aykol, China 4.3 0055175517 km 170908306528-02-2024 01:17 kaart
2 km SE of Indios, Puerto Rico 2.5 0072017201 km 170907781127-02-2024 23:50 kaart
27 km SSE of Chickaloon, Alaska 2.5 0071127112 km 170907693927-02-2024 23:35 kaart
49 km NE of Miches, Dominican Republic 3.5 0072187218 km 170907656627-02-2024 23:29 kaart
22 km SSE of Chickaloon, Alaska 2.6 0071107110 km 170907528927-02-2024 23:08 kaart
18 km N of Borrego Springs, CA 2.9 0089028902 km 170907425227-02-2024 22:50 kaart
8 km NNW of Smiths Ferry, Idaho 2.2 0078647864 km 170907411727-02-2024 22:48 kaart
10 km WSW of Petrolia, CA 2.1 0086038603 km 170907389527-02-2024 22:44 kaart
41 km ESE of Pedro Bay, Alaska 2.5 0073887388 km 170907382727-02-2024 22:43 kaart
32 km SE of Bellavista, Colombia 4.5 0088848884 km 170907371227-02-2024 22:41 kaart
8 km ENE of Dutch Harbor, Alaska 2.5 0081548154 km 170907306427-02-2024 22:31 kaart
13 km S of Princeton, Canada 2.0 0075807580 km 170907222627-02-2024 22:17 kaart
16 km N of Meadow Lakes, Alaska 2.0 0071127112 km 170907197727-02-2024 22:12 kaart
3 km SE of Maria Antonia, Puerto Rico 2.1 0072077207 km 170906994927-02-2024 21:39 kaart
77 km WNW of Ollagüe, Chile 4.2 01082310823 km 170906924627-02-2024 21:27 kaart
7 km NNW of Smiths Ferry, Idaho 2.4 0078657865 km 170906851927-02-2024 21:15 kaart
11 km N of Cantwell, Alaska 2.1 0069196919 km 170906831127-02-2024 21:11 kaart
6 km NE of Chignik Lagoon, Alaska 2.5 0078177817 km 170906756427-02-2024 20:59 kaart
8 km SE of La Parguera, Puerto Rico 2.0 0072177217 km 170906586227-02-2024 20:31 kaart
33 km SE of Denali National Park, Alaska 2.1 0069756975 km 170906436127-02-2024 20:06 kaart
28 km ENE of Porterville, CA 2.4 0087538753 km 170906305227-02-2024 19:44 kaart
7 km NNW of Smiths Ferry, Idaho 2.1 0078647864 km 170906136627-02-2024 19:16 kaart
6 km SW of Bridgeport, Alabama 2.1 0070497049 km 170905922427-02-2024 18:40 kaart
41 km NNW of Ajigasawa, Japan 4.1 0087458745 km 170905841827-02-2024 18:26 kaart
23 km SSW of Westbrook, Texas 2.6 0082018201 km 170905742127-02-2024 18:10 kaart
84 km W of San Antonio de los Cobres, Argentina 4.3 01100711007 km 170905731127-02-2024 18:08 kaart
21 km WSW of Anchorage, Alaska 3.4 0071917191 km 170905496727-02-2024 17:29 kaart
26 km N of Atka, Alaska 2.1 0083488348 km 170905403527-02-2024 17:13 kaart
8 km NNW of Smiths Ferry, Idaho 2.2 0078647864 km 170905367627-02-2024 17:07 kaart
8 km N of Smiths Ferry, Idaho 2.4 0078627862 km 170905346327-02-2024 17:04 kaart
27 km WNW of Akhiok, Alaska 2.5 0076967696 km 170905135027-02-2024 16:29 kaart
96 km SSE of Popondetta, Papua New Guinea 4.9 01422814228 km 170904995427-02-2024 16:05 kaart
2 km SW of Pāhala, Hawaii 2.4 01182311823 km 170904663027-02-2024 15:10 kaart
3 km SE of Ontario, CA 2.0 0089028902 km 170904639927-02-2024 15:06 kaart
100 km SE of Kokopo, Papua New Guinea 5.0 01397813978 km 170904407227-02-2024 14:27 kaart
126 km SSE of Kyzyl-Suu, Kyrgyzstan 4.3 0054755475 km 170904348027-02-2024 14:18 kaart
86 km NW of Vallenar, Chile 4.0 01159011590 km 170904304327-02-2024 14:10 kaart
70 km N of Isabela, Puerto Rico 3.3 0071127112 km 170904250527-02-2024 14:01 kaart
147 km WSW of Adak, Alaska 2.1 0084618461 km 170904205827-02-2024 13:54 kaart
23 km ESE of Lapseki, Turkey 4.5 0021512151 km 170903939427-02-2024 13:09 kaart
22 km SW of Petersville, Alaska 2.5 0070707070 km 170903921227-02-2024 13:06 kaart
34 km E of Pedro Bay, Alaska 2.6 0073767376 km 170903850527-02-2024 12:55 kaart
7 km NNW of Smiths Ferry, Idaho 3.0 0078657865 km 170903846727-02-2024 12:54 kaart
18 km E of Ōhara, Japan 4.5 0093589358 km 170903783827-02-2024 12:43 kaart
17 km NE of Hermleigh, Texas 2.4 0081228122 km 170903573227-02-2024 12:08 kaart
42 km E of Denali National Park, Alaska 2.1 0069416941 km 170903540527-02-2024 12:03 kaart
64 km E of Chuquitira, Peru 4.2 01051310513 km 170903363827-02-2024 11:33 kaart
33 km SSW of Kirakira, Solomon Islands 5.0 01493014930 km 170903337427-02-2024 11:29 kaart
25 km S of Fern Forest, Hawaii 2.4 01180911809 km 170903251527-02-2024 11:15 kaart
8 km NNW of Smiths Ferry, Idaho 2.4 0078637863 km 170903175027-02-2024 11:02 kaart
150 km SE of Mil’kovo, Russia 4.3 0079687968 km 170903168927-02-2024 11:01 kaart
4 km WSW of Fuig, Puerto Rico 2.3 0072127212 km 170903142627-02-2024 10:57 kaart
3 km NW of Fuig, Puerto Rico 2.2 0072087208 km 170903139127-02-2024 10:56 kaart
18 km WNW of Salamatof, Alaska 2.0 0072617261 km 170903049827-02-2024 10:41 kaart
29 km SSE of Eureka Roadhouse, Alaska 2.5 0070797079 km 170902971927-02-2024 10:28 kaart
4 km E of Falls City, Texas 2.3 0082978297 km 170902753427-02-2024 09:52 kaart
8 km NE of Mapastepec, Mexico 4.0 0091619161 km 170902542427-02-2024 09:17 kaart
7 km NW of The Geysers, CA 2.2 0086818681 km 170902541927-02-2024 09:16 kaart
26 km NE of Susitna North, Alaska 2.1 0070527052 km 170902419627-02-2024 08:56 kaart
45 km NW of San Antonio de los Cobres, Argentina 4.6 01094510945 km 170902313027-02-2024 08:38 kaart
5 km NNE of Corralitos, CA 2.7 0088088808 km 170902300027-02-2024 08:36 kaart
5 km SW of La Parguera, Puerto Rico 2.3 0072247224 km 170902260427-02-2024 08:30 kaart
8 km N of Smiths Ferry, Idaho 2.6 0078637863 km 170902232827-02-2024 08:25 kaart
6 km ENE of Big Lake, Alaska 2.2 0071417141 km 170902047627-02-2024 07:54 kaart
115 km SE of Akhiok, Alaska 3.3 0077607760 km 170901879627-02-2024 07:26 kaart
Bonin Islands, Japan region 4.9 01027110271 km 170901839127-02-2024 07:19 kaart
0 km N of San Pablo, CA 2.2 0087428742 km 170901509727-02-2024 06:24 kaart
105 km WNW of Yakutat, Alaska 2.1 0071517151 km 170901479627-02-2024 06:19 kaart
80 km E of Cordova, Alaska 2.0 0071397139 km 170901376727-02-2024 06:02 kaart
2 km NNW of Indios, Puerto Rico 2.2 0072007200 km 170901306727-02-2024 05:51 kaart
55 km S of Whites City, New Mexico 2.6 0084288428 km 170901258527-02-2024 05:43 kaart
37 km SW of Suai, Timor Leste 5.3 01285812858 km 170900934927-02-2024 04:49 kaart
18 km SE of Teno, Chile 4.4 01217612176 km 170900899927-02-2024 04:43 kaart
54 km NNE of Culebra, Puerto Rico 3.8 0070227022 km 170900897627-02-2024 04:42 kaart
81 km NNW of Naisano Dua, Indonesia 4.4 01270212702 km 170900875127-02-2024 04:39 kaart
31 km SW of Skwentna, Alaska 2.0 0071437143 km 170900796227-02-2024 04:26 kaart
66 km SW of Brisas Barra de Suchiate, Mexico 4.6 0092719271 km 170900418627-02-2024 03:23 kaart
66 km SW of Brisas Barra de Suchiate, Mexico 4.4 0092719271 km 170900377727-02-2024 03:16 kaart
66 km ESE of Denali National Park, Alaska 2.4 0069666966 km 170900198727-02-2024 02:46 kaart
7 km NNW of Smiths Ferry, Idaho 2.1 0078647864 km 170899621927-02-2024 01:10 kaart
52 km N of Chickaloon, Alaska 3.0 0070437043 km 170899520427-02-2024 00:53 kaart
7 km NNW of Smiths Ferry, Idaho 2.2 0078647864 km 170899326227-02-2024 00:21 kaart
Izu Islands, Japan region 4.7 0097079707 km 170899285327-02-2024 00:14 kaart
5 km NNW of Beluga, Alaska 2.0 0071987198 km 170899225927-02-2024 00:04 kaart
7 km NNW of Smiths Ferry, Idaho 2.4 0078647864 km 170899206327-02-2024 00:01 kaart
103 km SW of Pelabuhanratu, Indonesia 4.6 01140711407 km 170899173526-02-2024 23:55 kaart
24 km SSW of Westbrook, Texas 2.0 0082008200 km 170899046026-02-2024 23:34 kaart
46 km NE of Pedro Bay, Alaska 2.3 0073567356 km 170898925826-02-2024 23:14 kaart
77 km WSW of Challapata, Bolivia 4.1 01056310563 km 170898788726-02-2024 22:51 kaart
39 km W of Nanwalek, Alaska 2.8 0074137413 km 170898768326-02-2024 22:48 kaart
73 km SSE of Onagawa Chō, Japan 4.2 0091409140 km 170898361726-02-2024 21:40 kaart
53 km NW of Toyah, Texas 2.0 0084198419 km 170898359226-02-2024 21:39 kaart
14 km NE of Jiquilillo, Nicaragua 5.1 0090329032 km 170898333826-02-2024 21:35 kaart
36 km NW of Ninilchik, Alaska 2.0 0073057305 km 170898182426-02-2024 21:10 kaart
42 km WSW of Carlsbad, CA 2.1 0090079007 km 170897729126-02-2024 19:54 kaart
7 km NNW of Smiths Ferry, Idaho 2.2 0078637863 km 170897663426-02-2024 19:43 kaart
234 km W of Tual, Indonesia 4.8 01287912879 km 170897623526-02-2024 19:37 kaart
17 km NE of Hermleigh, Texas 2.4 0081228122 km 170897606126-02-2024 19:34 kaart
5 km NNW of Smiths Ferry, Idaho 2.8 0078657865 km 170897404026-02-2024 19:00 kaart
7 km NNW of Smiths Ferry, Idaho 2.3 0078647864 km 170897374226-02-2024 18:55 kaart
7 km NNW of Smiths Ferry, Idaho 2.1 0078647864 km 170897330426-02-2024 18:48 kaart
8 km NNW of Smiths Ferry, Idaho 2.5 0078637863 km 170897311126-02-2024 18:45 kaart
7 km NNW of Smiths Ferry, Idaho 2.0 0078637863 km 170897306826-02-2024 18:44 kaart
7 km NNW of Smiths Ferry, Idaho 2.4 0078647864 km 170897295226-02-2024 18:42 kaart
4 km S of Itoman, Japan 4.3 0096699669 km 170897221726-02-2024 18:30 kaart
7 km NNW of Smiths Ferry, Idaho 2.1 0078647864 km 170897166126-02-2024 18:21 kaart
7 km NNW of Smiths Ferry, Idaho 2.2 0078647864 km 170897146026-02-2024 18:17 kaart
3 km E of Aromas, CA 2.0 0088158815 km 170897125226-02-2024 18:14 kaart
7 km NNW of Smiths Ferry, Idaho 2.1 0078647864 km 170897040126-02-2024 18:00 kaart
8 km NNW of Smiths Ferry, Idaho 2.1 0078647864 km 170897036526-02-2024 17:59 kaart
124 km WNW of Aykol, China 4.4 0054895489 km 170896956426-02-2024 17:46 kaart
8 km NW of Smiths Ferry, Idaho 2.7 0078667866 km 170896956226-02-2024 17:46 kaart
12 km SSE of Guánica, Puerto Rico 2.6 0072177217 km 170896895326-02-2024 17:35 kaart
10 km N of Smiths Ferry, Idaho 4.9 0078617861 km 170896834326-02-2024 17:25 kaart
Owen Fracture Zone region 5.0 0065266526 km 170896773226-02-2024 17:15 kaart
8 km SE of Ocotillo Wells, CA 2.2 0089178917 km 170896130426-02-2024 15:28 kaart
46 km NW of Toyah, Texas 2.0 0084278427 km 170896100926-02-2024 15:23 kaart
107 km SE of Estacion Coahuila, B.C., MX 4.1 0089878987 km 170895429926-02-2024 13:31 kaart
45 km W of Petrolia, CA 2.6 0086138613 km 170895147026-02-2024 12:44 kaart
115 km WNW of Aykol, China 4.3 0054985498 km 170895052226-02-2024 12:28 kaart
194 km SE of Fakfak, Indonesia 4.3 01288112881 km 170894920726-02-2024 12:06 kaart
75 km WNW of Rikaze, China 4.5 0070127012 km 170894696226-02-2024 11:29 kaart
2 km SW of Pāhala, Hawaii 2.2 01182311823 km 170894594926-02-2024 11:12 kaart
4 km ESE of Boquerón, Puerto Rico 2.2 0072217221 km 170894478426-02-2024 10:53 kaart
26 km ENE of Port Alsworth, Alaska 2.3 0073357335 km 170893738126-02-2024 08:49 kaart
32 km WSW of Ackerly, Texas 2.2 0082328232 km 170893685226-02-2024 08:40 kaart
0 km WNW of Pāhala, Hawaii 2.4 01182111821 km 170893144826-02-2024 07:10 kaart
19 km NW of Ōzu, Japan 4.9 0091719171 km 170892865226-02-2024 06:24 kaart
55 km ESE of Jiufen, Taiwan 4.3 0094929492 km 170892692026-02-2024 05:55 kaart
8 km SSW of Pāhala, Hawaii 2.0 01182911829 km 170892346826-02-2024 04:57 kaart
17 km ENE of Port Alsworth, Alaska 2.6 0073387338 km 170891985826-02-2024 03:57 kaart
52 km NNW of San Antonio, Puerto Rico 3.5 0071607160 km 170891967926-02-2024 03:54 kaart
14 km NE of Milford, Utah 2.3 0082578257 km 170891940726-02-2024 03:50 kaart
81 km NE of Punta Cana, Dominican Republic 3.7 0071767176 km 170891894726-02-2024 03:42 kaart
9 km E of Tandag, Philippines 4.9 01120811208 km 170891885226-02-2024 03:40 kaart
51 km SW of Cantwell, Alaska 2.0 0069766976 km 170891555126-02-2024 02:45 kaart
25 km S of Nelchina, Alaska 2.5 0070687068 km 170891397026-02-2024 02:19 kaart
25 km NW of Stanley, Idaho 2.1 0078257825 km 170891175126-02-2024 01:42 kaart
5 km WNW of Lluta, Peru 4.1 01056110561 km 170891163126-02-2024 01:40 kaart
24 km NW of Stanley, Idaho 2.4 0078247824 km 170891113826-02-2024 01:32 kaart
121 km SSE of Kyzyl-Suu, Kyrgyzstan 4.5 0054705470 km 170891093226-02-2024 01:28 kaart
26 km E of Minto, Alaska 3.4 0067416741 km 170890534025-02-2024 23:55 kaart
9 km S of Princeton, Canada 2.1 0075787578 km 170889929525-02-2024 22:14 kaart
21 km SE of Champerico, Guatemala 4.1 0092109210 km 170889928425-02-2024 22:14 kaart
217 km SE of Pondaguitan, Philippines 4.3 01167511675 km 170889900325-02-2024 22:10 kaart
15 km N of Viola, CA 2.2 0084568456 km 170889897825-02-2024 22:09 kaart
5 km SSE of Canyondam, CA 2.8 0084788478 km 170889799225-02-2024 21:53 kaart
2 km W of Pāhala, Hawaii 2.4 01182211822 km 170889617225-02-2024 21:22 kaart
19 km ESE of Point Sur, CA 2.5 0088798879 km 170889604325-02-2024 21:20 kaart
58 km S of Whites City, New Mexico 2.0 0084368436 km 170889477325-02-2024 20:59 kaart
58 km S of Whites City, New Mexico 2.1 0084368436 km 170889380425-02-2024 20:43 kaart
1 km WNW of Palomas, Puerto Rico 2.0 0072047204 km 170889179125-02-2024 20:09 kaart
1 km SSW of Pāhala, Hawaii 2.2 01182211822 km 170888571325-02-2024 18:28 kaart
60 km S of Whites City, New Mexico 2.0 0084388438 km 170888451825-02-2024 18:08 kaart
65 km NNE of Van Horn, Texas 2.2 0084488448 km 170888437225-02-2024 18:06 kaart
80 km E of Teluk Dalam, Indonesia 4.6 01020610206 km 170888242825-02-2024 17:33 kaart
42 km NE of Calama, Chile 4.9 01090210902 km 170887982025-02-2024 16:50 kaart
south of Panama 4.5 0094859485 km 170887644325-02-2024 15:54 kaart
14 km NW of Alder Springs, CA 3.0 0085928592 km 170887618525-02-2024 15:49 kaart
57 km NNW of Petersville, Alaska 2.3 0070037003 km 170887602325-02-2024 15:47 kaart
42 km WNW of Happy Valley, Alaska 2.0 0073347334 km 170887586825-02-2024 15:44 kaart
15 km S of Fern Forest, Hawaii 2.5 01179911799 km 170887579425-02-2024 15:43 kaart
42 km WSW of Clear, Alaska 2.0 0068696869 km 170887443025-02-2024 15:20 kaart
69 km NW of San Antonio, Puerto Rico 3.0 0071687168 km 170887359525-02-2024 15:06 kaart
77 km WSW of Pelabuhanratu, Indonesia 5.2 01140311403 km 170887349725-02-2024 15:04 kaart
31 km E of Yilan, Taiwan 4.9 0094939493 km 170886891325-02-2024 13:48 kaart
85 km ESE of Maneadero, B.C., MX 2.2 0090459045 km 170886792425-02-2024 13:32 kaart
88 km NNW of Tocopilla, Chile 4.5 01095810958 km 170886680925-02-2024 13:13 kaart
80 km WSW of Pelabuhanratu, Indonesia 5.6 01139911399 km 170886642425-02-2024 13:07 kaart
13 km SSE of Eatonton, Georgia 2.2 0070367036 km 170886445125-02-2024 12:34 kaart
off the coast of Oregon 3.5 0084188418 km 170886193925-02-2024 11:52 kaart
4 km WSW of La Parguera, Puerto Rico 2.7 0072227222 km 170886178025-02-2024 11:49 kaart
9 km N of Arctic Village, Alaska 3.3 0063746374 km 170886160625-02-2024 11:46 kaart
22 km WNW of Stanley, Idaho 2.2 0078267826 km 170886122825-02-2024 11:40 kaart
14 km NE of Milford, Utah 2.0 0082578257 km 170885950625-02-2024 11:11 kaart
89 km W of Tobelo, Indonesia 4.4 01196211962 km 170885639925-02-2024 10:19 kaart
6 km WSW of Fuig, Puerto Rico 2.1 0072147214 km 170885500025-02-2024 09:56 kaart
194 km ESE of Taira, Japan 4.5 0098089808 km 170885003925-02-2024 08:33 kaart
239 km W of Adak, Alaska 2.4 0084108410 km 170884954625-02-2024 08:25 kaart
5 km WSW of Guánica, Puerto Rico 2.4 0072147214 km 170884786025-02-2024 07:57 kaart
63 km SSW of Whites City, New Mexico 3.1 0084438443 km 170884754825-02-2024 07:52 kaart
19 km WNW of Petrolia, CA 2.2 0085988598 km 170884700625-02-2024 07:43 kaart
19 km N of Pedernales, Ecuador 4.7 0096479647 km 170884602325-02-2024 07:27 kaart
50 km NW of Toyah, Texas 2.9 0084258425 km 170884591425-02-2024 07:25 kaart
9 km SSE of Maria Antonia, Puerto Rico 2.3 0072107210 km 170884526325-02-2024 07:14 kaart
25 km NNE of Arecibo, Puerto Rico 2.9 0071307130 km 170884354025-02-2024 06:45 kaart
58 km S of Whites City, New Mexico 2.5 0084368436 km 170884346225-02-2024 06:44 kaart
38 km NW of San Antonio, Puerto Rico 3.0 0071747174 km 170884247425-02-2024 06:27 kaart
55 km N of Loíza, Puerto Rico 3.2 0070577057 km 170884197125-02-2024 06:19 kaart
42 km NW of San Antonio, Puerto Rico 3.3 0071717171 km 170883991425-02-2024 05:45 kaart
50 km N of Tierras Nuevas Poniente, Puerto Rico 3.1 0071007100 km 170883825925-02-2024 05:17 kaart
3 km WSW of Pāhala, Hawaii 2.1 01182311823 km 170883797725-02-2024 05:12 kaart
112 km E of San Pedro de Atacama, Chile 4.3 01087110871 km 170883627825-02-2024 04:44 kaart
21 km NNE of Miches, Dominican Republic 3.9 0072477247 km 170883484525-02-2024 04:20 kaart
135 km SSE of Kyzyl-Suu, Kyrgyzstan 5.4 0054805480 km 170883450025-02-2024 04:15 kaart
30 km SE of Mina, Nevada 2.0 0085218521 km 170883368225-02-2024 04:01 kaart
8 km ESE of Yucaipa, CA 2.1 0088748874 km 170883366125-02-2024 04:01 kaart
195 km SE of Kokopo, Papua New Guinea 4.4 01406714067 km 170883132025-02-2024 03:22 kaart
34 km NW of Valdez, Alaska 2.1 0071167116 km 170883126325-02-2024 03:21 kaart
2 km SE of Falls City, Texas 2.1 0082998299 km 170882973725-02-2024 02:55 kaart
89 km W of San Antonio de los Cobres, Argentina 4.5 01099610996 km 170882964325-02-2024 02:54 kaart
193 km S of Bengkulu, Indonesia 4.2 01099710997 km 170882792825-02-2024 02:25 kaart
10 km NE of Pāhala, Hawaii 2.3 01181311813 km 170882703225-02-2024 02:10 kaart
Izu Islands, Japan region 4.4 0097209720 km 170882618925-02-2024 01:56 kaart
45 km NW of Akutan, Alaska 2.6 0080978097 km 170882340925-02-2024 01:10 kaart
28 km NNE of Atka, Alaska 2.4 0083468346 km 170882338325-02-2024 01:09 kaart
27 km SW of Puerto Ángel, Mexico 4.2 0094089408 km 170882264425-02-2024 00:57 kaart
59 km ENE of Isen, Japan 4.3 0095969596 km 170882088825-02-2024 00:28 kaart
9 km SSE of Maria Antonia, Puerto Rico 2.5 0072107210 km 170882021825-02-2024 00:16 kaart
20 km W of Puerto Real, Puerto Rico 3.5 0072307230 km 170881941425-02-2024 00:03 kaart
7 km S of Atoka, New Mexico 3.9 0083388338 km 170881861124-02-2024 23:50 kaart
47 km SSE of Tari, Papua New Guinea 5.0 01362113621 km 170881738224-02-2024 23:29 kaart
14 km NNW of Psará, Greece 4.1 0022052205 km 170881554124-02-2024 22:59 kaart
35 km NNW of Toyah, Texas 2.4 0084128412 km 170881549624-02-2024 22:58 kaart
10 km E of Pāhala, Hawaii 2.2 01181811818 km 170881267024-02-2024 22:11 kaart
2 km WSW of Pāhala, Hawaii 2.0 01182211822 km 170881241324-02-2024 22:06 kaart
45 km N of Valdez, Alaska 2.6 0070867086 km 170881232724-02-2024 22:05 kaart
10 km W of El Realejo, Nicaragua 5.3 0090519051 km 170881186124-02-2024 21:57 kaart
4 km N of Santa Rosa, CA 2.0 0087088708 km 170881056624-02-2024 21:36 kaart
Bonin Islands, Japan region 4.3 01018010180 km 170880939824-02-2024 21:16 kaart
46 km NE of Punta Cana, Dominican Republic 3.6 0072127212 km 170880637024-02-2024 20:26 kaart
53 km NW of Toyah, Texas 2.3 0084288428 km 170880596024-02-2024 20:19 kaart
South Sandwich Islands region 4.1 01277112771 km 170880528224-02-2024 20:08 kaart
22 km ESE of Yakutat, Alaska 2.4 0071647164 km 170880349124-02-2024 19:38 kaart
3 km SSE of Pāhala, Hawaii 2.1 01182411824 km 170880205924-02-2024 19:14 kaart
116 km WNW of Manta, Ecuador 4.6 0098359835 km 170880196824-02-2024 19:12 kaart
18 km NE of Mejillones, Chile 4.5 01107611076 km 170880144524-02-2024 19:04 kaart
48 km ENE of Fort Bidwell, California 2.4 0082418241 km 170880110524-02-2024 18:58 kaart
3 km W of San Jose de Buan, Philippines 4.9 01085510855 km 170880046324-02-2024 18:47 kaart
1 km NW of Pāhala, Hawaii 2.2 01182011820 km 170879989124-02-2024 18:38 kaart
85 km SW of Atka, Alaska 4.0 0084258425 km 170879902524-02-2024 18:23 kaart
35 km NNW of Toyah, Texas 2.2 0084138413 km 170879894024-02-2024 18:22 kaart
54 km NW of Toyah, Texas 2.7 0084298429 km 170879664724-02-2024 17:44 kaart
66 km NE of Punta Cana, Dominican Republic 3.3 0071927192 km 170879519924-02-2024 17:19 kaart
off the coast of Oregon 3.6 0084348434 km 170879232724-02-2024 16:32 kaart
6 km ESE of Pāhala, Hawaii 2.0 01182111821 km 170879072624-02-2024 16:05 kaart
10 km NNE of Carrizales, Puerto Rico 3.3 0071477147 km 170878815724-02-2024 15:22 kaart
10 km NE of Falls City, Texas 2.3 0082898289 km 170878757524-02-2024 15:12 kaart
44 km NW of San Antonio, Puerto Rico 3.2 0071707170 km 170878542424-02-2024 14:37 kaart
4 km S of Pāhala, Hawaii 2.0 01182511825 km 170878442624-02-2024 14:20 kaart
29 km WNW of Tonopah, Nevada 2.4 0085058505 km 170878200024-02-2024 13:40 kaart
2 km SSE of Pacapausa, Peru 4.6 01055310553 km 170877730424-02-2024 12:21 kaart
244 km SSE of Ambon, Indonesia 4.3 01275512755 km 170877491724-02-2024 11:41 kaart
6 km NW of North Lakeport, CA 2.0 0086578657 km 170877421324-02-2024 11:30 kaart
32 km NE of Barcelona, Philippines 4.3 01130111301 km 170876997124-02-2024 10:19 kaart
128 km E of Miyako, Japan 5.1 0090169016 km 170876986024-02-2024 10:17 kaart

506 earthquakes found. Click on location or map links for more details from the USGS


Kaart en gegevens eigendom van United States Geological Survey

Script ontwikkeld door  Saratoga-weather.org Aangepast voor de template door  Weerstation Leuven (version 3.21)

U vindt ons ook hier:

UK Metoffice

European Weather Network

Weather Underground

AWEKAS

Citizen Weather Observer Program (CWOP)

HAMweather, WeatherForYou, PWS Weather

Apparatuur in gebruik:

Weerstation
Davis Vue

Weerprogramma
Meteobridge

Weercomputer
QR code

Webleverancier
Wned

Davis Vue

Meteobridge

QR code

Wned